Time;durP1;ratioP1;P1;durP2;ratioP2;P2;SDS_P1;SDS_P2;PMS_P1;PMS_P2;Temp;Humidity;BMP_temperature;BMP_pressure;BME280_temperature;BME280_humidity;BME280_pressure;Samples;Min_cycle;Max_cycle;Signal;HPM_P1;HPM_P2
2022/07/14 16:16:09;;;;;;;14.90;13.93;;;55.70;15.70;;;40.86;17.24;95467.75;4981995;28;20124;-49
2022/07/14 16:18:34;;;;;;;13.82;12.80;;;55.40;14.60;;;40.85;16.99;95461.41;4956346;28;20027;-52
2022/07/14 16:21:02;;;;;;;14.32;13.32;;;55.70;14.00;;;40.90;16.46;95466.38;4964818;28;20465;-53
2022/07/14 16:23:30;;;;;;;14.02;12.98;;;55.90;13.50;;;40.72;16.69;95474.75;4947897;28;20041;-50
2022/07/14 16:25:56;;;;;;;14.23;13.32;;;56.20;13.10;;;40.45;16.70;95462.31;4959811;28;20038;-50
2022/07/14 16:28:22;;;;;;;13.90;13.00;;;56.40;12.80;;;40.53;16.69;95462.00;4954121;28;20433;-51
2022/07/14 16:30:49;;;;;;;12.63;11.73;;;56.50;12.60;;;39.95;17.62;95460.78;4960742;28;20117;-48
2022/07/14 16:33:15;;;;;;;10.90;10.18;;;56.50;12.40;;;40.16;17.28;95459.16;4946166;28;20119;-50
2022/07/14 16:35:44;;;;;;;12.85;12.15;;;56.50;12.30;;;40.00;17.55;95465.78;4956521;28;20485;-52
2022/07/14 16:38:16;;;;;;;13.20;12.10;;;56.50;12.30;;;40.11;17.53;95460.50;4953252;28;20401;-47
2022/07/14 16:40:46;;;;;;;12.02;11.20;;;56.50;12.30;;;39.89;16.75;95468.22;4964716;28;20303;-49
2022/07/14 16:43:13;;;;;;;10.00;9.40;;;56.50;12.30;;;39.82;17.08;95462.94;4965045;28;20385;-47
2022/07/14 16:45:43;;;;;;;11.48;10.77;;;56.30;12.20;;;39.70;16.91;95473.69;4948000;28;20541;-52
2022/07/14 16:48:13;;;;;;;10.45;9.70;;;56.20;12.20;;;39.93;17.25;95463.28;4943468;28;20085;-50
2022/07/14 16:50:39;;;;;;;9.55;7.57;;;55.80;12.10;;;39.86;16.89;95469.13;4944174;28;20071;-48
2022/07/14 16:53:05;;;;;;;11.15;10.23;;;54.90;12.30;;;39.50;17.40;95464.94;4927669;28;20027;-49
2022/07/14 16:55:32;;;;;;;10.00;9.18;;;54.80;12.40;;;39.56;17.09;95477.03;4943650;29;20031;-49
2022/07/14 16:57:58;;;;;;;11.10;10.23;;;55.20;12.30;;;39.33;17.11;95467.97;4944573;28;20054;-49
2022/07/14 17:00:26;;;;;;;11.75;11.05;;;55.40;12.10;;;38.84;17.33;95471.34;4944926;28;20113;-48
2022/07/14 17:02:54;;;;;;;10.57;9.95;;;55.60;11.90;;;38.55;17.78;95467.97;4950680;28;20061;-47
2022/07/14 17:08:14;;;;;;;10.38;9.77;;;55.60;11.80;;;38.41;17.39;95464.44;4899558;28;24309;-52
2022/07/14 17:10:45;;;;;;;9.93;9.00;;;55.70;11.70;;;38.44;17.34;95460.00;4943665;29;20089;-52
2022/07/14 17:13:11;;;;;;;9.93;6.45;;;55.50;11.60;;;37.82;17.96;95473.53;4939619;29;20067;-48
2022/07/14 17:15:46;;;;;;;4.90;4.60;;;55.20;11.50;;;37.10;18.65;95472.09;4925314;29;20054;-48
2022/07/14 17:18:11;;;;;;;6.43;3.78;;;53.80;11.70;;;36.43;18.92;95461.59;4920684;29;20028;-47
2022/07/14 17:20:37;;;;;;;3.53;3.13;;;51.40;12.40;;;35.74;19.33;95467.25;4937180;28;20038;-46
2022/07/14 17:23:03;;;;;;;3.47;2.33;;;48.90;13.20;;;35.08;19.78;95475.38;4946247;28;20023;-46
2022/07/14 17:25:34;;;;;;;4.97;2.65;;;46.70;14.00;;;34.96;20.41;95467.69;4957525;28;20288;-51
2022/07/14 17:28:00;;;;;;;2.40;2.20;;;44.80;14.80;;;34.53;20.59;95463.00;4961087;28;20058;-49
2022/07/14 17:30:29;;;;;;;5.30;2.03;;;43.20;15.50;;;34.05;20.68;95467.75;4950897;28;20452;-52
2022/07/14 17:32:55;;;;;;;3.92;2.30;;;41.90;16.20;;;33.70;21.23;95468.31;4961725;28;20020;-48
2022/07/14 17:35:21;;;;;;;2.78;2.20;;;40.90;16.70;;;33.22;20.98;95455.53;4938471;28;20031;-48
2022/07/14 17:37:53;;;;;;;3.33;2.08;;;40.00;17.10;;;33.08;21.59;95468.31;4928483;29;20050;-46
2022/07/14 17:40:19;;;;;;;4.93;1.95;;;39.20;17.60;;;32.69;21.78;95469.56;4931004;29;20022;-48
2022/07/14 17:42:45;;;;;;;5.03;1.90;;;38.50;17.90;;;32.37;21.81;95466.31;4932372;29;20045;-48
2022/07/14 17:45:16;;;;;;;5.93;2.15;;;37.90;18.20;;;32.09;22.24;95470.94;4931757;29;20393;-49
2022/07/14 17:47:45;;;;;;;2.63;1.60;;;37.40;18.60;;;31.99;22.12;95469.81;4913826;29;20039;-47
2022/07/14 17:50:14;;;;;;;2.20;1.63;;;37.00;18.90;;;32.00;22.79;95478.88;4919340;29;20121;-47
2022/07/14 17:52:45;;;;;;;3.78;1.55;;;36.60;19.20;;;31.73;22.90;95475.88;4932662;29;20039;-48
2022/07/14 17:55:17;;;;;;;3.78;1.67;;;36.30;19.50;;;31.64;23.34;95475.56;4931026;29;20401;-46
2022/07/14 17:57:49;;;;;;;3.95;1.70;;;35.90;19.80;;;31.36;23.50;95474.56;4914890;28;20077;-46
2022/07/14 18:00:16;;;;;;;1.73;1.60;;;35.70;20.10;;;31.29;23.45;95472.59;4931004;29;20046;-49
2022/07/14 18:02:42;;;;;;;5.45;1.70;;;35.40;20.20;;;31.20;23.65;95471.47;4931971;29;20511;-46
2022/07/14 18:05:16;;;;;;;5.68;1.63;;;35.20;20.40;;;31.13;23.81;95469.53;4931908;29;20033;-47
2022/07/14 18:07:43;;;;;;;2.92;1.70;;;35.00;20.70;;;31.06;24.26;95481.38;4931367;29;20027;-47
2022/07/14 18:10:15;;;;;;;3.33;1.80;;;34.80;20.80;;;31.00;24.11;95473.94;4930422;29;20027;-48
2022/07/14 18:12:41;;;;;;;4.40;1.67;;;34.60;21.10;;;30.86;24.43;95475.53;4915609;29;20385;-48
2022/07/14 18:15:09;;;;;;;5.65;1.60;;;34.50;21.20;;;30.74;24.67;95477.91;4911251;29;20138;-47
2022/07/14 18:17:41;;;;;;;4.78;1.70;;;34.40;21.50;;;30.49;25.35;95465.03;4883492;28;20059;-47
2022/07/14 18:20:10;;;;;;;2.80;1.52;;;34.20;21.60;;;30.38;25.16;95469.78;4905765;29;20023;-46
2022/07/14 18:22:41;;;;;;;4.18;1.60;;;34.00;21.80;;;30.23;25.56;95476.47;4931570;29;20388;-50
2022/07/14 18:25:13;;;;;;;2.53;1.80;;;33.80;22.00;;;30.11;26.09;95477.63;4931761;29;20474;-46
2022/07/14 18:27:58;;;;;;;3.85;2.20;;;33.70;22.30;;;29.95;26.22;95473.31;4896328;29;20031;-46
2022/07/14 18:30:29;;;;;;;6.47;1.80;;;33.50;22.30;;;29.84;26.45;95478.03;4912519;29;20074;-49
2022/07/14 18:33:02;;;;;;;4.45;2.10;;;33.30;22.70;;;29.79;26.56;95474.88;4911330;28;20368;-51
2022/07/14 18:35:28;;;;;;;4.30;1.73;;;33.20;22.90;;;29.68;27.15;95464.69;4917825;29;20027;-47
2022/07/14 18:37:54;;;;;;;6.32;1.70;;;33.00;23.00;;;29.57;27.41;95474.81;4915642;29;20078;-47
2022/07/14 18:40:21;;;;;;;5.45;1.98;;;32.90;23.20;;;29.49;27.46;95484.25;4921626;28;20046;-46
2022/07/14 18:42:49;;;;;;;3.22;1.92;;;32.80;23.40;;;29.39;27.83;95485.75;4901218;28;20038;-50
2022/07/14 18:47:59;;;;;;;1.73;1.58;;;32.60;23.80;;;29.19;28.34;95484.53;4912060;29;20039;-52
2022/07/14 18:50:25;;;;;;;2.15;1.67;;;32.50;24.00;;;29.11;28.34;95491.94;4923866;29;20023;-50
2022/07/14 18:52:52;;;;;;;2.25;1.88;;;32.30;24.10;;;28.97;28.40;95492.66;4923465;29;20028;-47
2022/07/14 18:55:22;;;;;;;2.00;1.80;;;32.20;24.20;;;28.88;28.68;95492.22;4926724;29;20031;-48
2022/07/14 18:57:50;;;;;;;4.80;1.80;;;32.20;24.60;;;28.77;28.81;95492.19;4917016;28;20042;-51
2022/07/14 19:00:19;;;;;;;6.63;1.63;;;32.00;24.50;;;28.68;29.06;95499.97;4928638;29;20035;-49
2022/07/14 19:02:48;;;;;;;2.88;2.00;;;31.90;24.70;;;28.60;29.04;95498.34;4909336;29;20169;-50
2022/07/14 19:05:14;;;;;;;2.90;1.60;;;31.80;25.00;;;28.52;29.35;95497.53;4920197;29;20027;-51
2022/07/14 19:07:42;;;;;;;2.42;1.77;;;31.70;25.00;;;28.33;31.41;95498.56;4898364;28;20035;-48
2022/07/14 19:10:09;;;;;;;2.95;1.60;;;31.60;25.50;;;28.09;32.15;95502.69;4864499;28;23055;-47
2022/07/14 19:12:36;;;;;;;5.88;1.88;;;31.50;25.90;;;27.83;31.29;95506.41;4890700;29;20032;-55
2022/07/14 19:15:04;;;;;;;5.93;2.17;;;31.30;26.00;;;27.66;31.72;95505.03;4890561;28;20071;-47
2022/07/14 19:17:30;;;;;;;48.72;4.10;;;31.10;26.10;;;27.45;34.13;95515.75;4896621;29;20024;-55
2022/07/14 19:19:55;;;;;;;35.03;3.63;;;30.90;26.50;;;27.06;34.91;95502.41;4860714;28;22171;-47
2022/07/14 19:22:21;;;;;;;26.80;3.03;;;30.70;26.90;;;26.87;34.98;95513.50;4891133;29;20467;-49
2022/07/14 19:24:47;;;;;;;45.00;3.75;;;30.50;27.30;;;26.51;36.15;95510.28;4891767;29;20035;-52
2022/07/14 19:27:16;;;;;;;24.20;2.65;;;30.30;27.70;;;26.24;37.04;95509.50;4899482;29;20039;-46
2022/07/14 19:29:46;;;;;;;19.58;2.20;;;30.00;28.10;;;25.86;37.44;95510.44;4909299;28;20027;-44
2022/07/14 19:32:12;;;;;;;20.83;2.70;;;29.80;28.50;;;25.61;37.94;95517.00;4910898;29;20020;-44
2022/07/14 19:34:39;;;;;;;17.85;2.58;;;29.50;28.70;;;25.34;39.13;95520.78;4909336;29;20122;-44
2022/07/14 19:37:08;;;;;;;9.18;1.85;;;29.30;29.10;;;25.15;37.79;95522.38;4899678;29;20050;-46
2022/07/14 19:39:34;;;;;;;7.32;1.98;;;29.00;29.50;;;24.98;40.02;95527.47;4875058;28;20489;-46
2022/07/14 19:42:00;;;;;;;4.40;1.85;;;28.80;29.70;;;24.84;39.57;95530.66;4891369;29;20039;-52
2022/07/14 19:44:32;;;;;;;3.13;1.70;;;28.60;30.00;;;24.73;39.39;95537.84;4893391;28;20422;-49
2022/07/14 19:46:58;;;;;;;8.27;2.22;;;28.40;30.30;;;24.64;41.03;95535.31;4891154;28;20028;-44
2022/07/14 19:49:25;;;;;;;4.90;1.77;;;28.20;30.50;;;24.53;40.94;95540.50;4900735;29;20032;-45
2022/07/14 19:51:51;;;;;;;6.20;1.70;;;28.10;31.00;;;24.21;41.74;95537.81;4897178;29;20028;-48
2022/07/14 19:54:19;;;;;;;4.43;1.90;;;28.00;31.30;;;24.10;41.93;95544.94;4894909;29;20043;-47
2022/07/14 19:56:46;;;;;;;3.03;1.30;;;27.80;31.60;;;23.93;42.70;95537.91;4891601;29;20020;-49
2022/07/14 19:59:14;;;;;;;3.20;1.90;;;27.60;32.00;;;23.74;43.33;95541.34;4901420;29;20074;-47
2022/07/14 20:01:41;;;;;;;2.03;1.75;;;27.50;32.50;;;23.55;43.15;95549.34;4891921;29;20081;-43
2022/07/14 20:04:10;;;;;;;7.18;1.67;;;27.30;32.60;;;23.52;42.55;95547.34;4901641;29;20426;-45
2022/07/14 20:06:38;;;;;;;2.70;1.50;;;27.20;32.90;;;23.56;42.27;95549.00;4890349;29;20020;-44
2022/07/14 20:09:10;;;;;;;1.83;1.50;;;27.00;32.90;;;23.46;44.13;95546.78;4894142;29;20035;-45
2022/07/14 20:11:48;;;;;;;4.00;1.80;;;26.90;33.50;;;23.24;45.00;95547.34;4899522;29;20056;-44
2022/07/14 20:14:17;;;;;;;2.83;1.85;;;26.80;33.90;;;23.13;44.30;95555.22;4892224;29;20829;-44
2022/07/14 20:16:46;;;;;;;2.60;1.88;;;26.70;34.00;;;23.02;44.90;95546.75;4866136;29;20028;-43
2022/07/14 20:19:12;;;;;;;5.90;1.70;;;26.60;35.00;;;22.93;45.05;95558.88;4906780;29;20027;-45
2022/07/14 20:21:48;;;;;;;2.47;1.45;;;26.50;34.50;;;22.85;45.85;95561.38;4899503;29;20086;-43
2022/07/14 20:24:17;;;;;;;3.95;1.80;;;26.40;35.00;;;22.77;46.44;95558.81;4894113;28;20032;-46
2022/07/14 20:26:50;;;;;;;2.05;1.65;;;26.30;35.30;;;22.64;47.14;95558.03;4891385;29;20043;-45
2022/07/14 20:34:53;;;;;;;2.72;1.40;;;26.00;36.30;;;22.38;49.12;95561.91;4902768;29;20044;-46
2022/07/14 20:37:22;;;;;;;4.55;2.03;;;25.90;36.50;;;22.38;49.33;95561.91;4906957;29;20080;-46
2022/07/14 20:39:51;;;;;;;10.05;2.50;;;25.80;37.00;;;22.39;49.18;95566.22;4902594;29;20054;-44
2022/07/14 20:42:17;;;;;;;5.43;2.42;;;25.80;37.40;;;22.36;49.16;95566.88;4905605;29;20513;-50
2022/07/14 20:44:43;;;;;;;4.47;2.17;;;25.70;37.50;;;22.38;48.37;95569.28;4893731;29;20068;-44
2022/07/14 20:47:16;;;;;;;6.57;1.92;;;25.70;37.60;;;22.42;48.53;95566.66;4906798;29;20054;-46
2022/07/14 20:49:47;;;;;;;;;;;25.70;37.80;;;22.42;48.72;95585.66;4899185;29;20047;-48
2022/07/14 20:52:19;;;;;;;6.03;1.75;;;25.70;37.20;;;22.36;49.39;95585.88;4905155;29;19994;-45
2022/07/14 20:54:48;;;;;;;6.60;1.80;;;25.70;37.80;;;22.38;48.08;95586.34;4882768;29;20032;-50
2022/07/14 20:57:24;;;;;;;12.23;2.10;;;25.70;37.70;;;22.41;47.01;95587.59;4905771;29;20028;-43
2022/07/14 20:59:55;;;;;;;7.72;1.73;;;25.70;37.80;;;22.40;48.19;95589.50;4905430;29;20029;-44
2022/07/14 21:02:24;;;;;;;6.03;2.30;;;25.70;37.80;;;22.45;48.53;95585.78;4880092;29;20036;-44
2022/07/14 21:04:53;;;;;;;6.60;2.90;;;25.70;38.10;;;22.44;49.70;95586.09;4909627;29;20453;-44
2022/07/14 21:07:19;;;;;;;3.58;2.30;;;25.70;38.40;;;22.37;50.23;95587.44;4913739;29;20439;-44
2022/07/14 21:09:47;;;;;;;3.25;1.77;;;25.60;38.70;;;22.27;50.34;95587.13;4914070;29;20039;-47
2022/07/14 21:12:16;;;;;;;6.20;1.73;;;25.60;39.00;;;22.19;50.97;95588.84;4896863;29;20458;-46
2022/07/14 21:14:48;;;;;;;5.68;1.98;;;25.50;39.30;;;22.08;51.12;95591.16;4911943;29;20056;-43
2022/07/14 21:17:22;;;;;;;3.67;1.73;;;25.50;39.70;;;22.01;51.54;95596.34;4896820;29;20368;-45
2022/07/14 21:19:50;;;;;;;6.28;2.00;;;25.40;39.70;;;21.91;51.53;95592.16;4912355;29;20505;-46
2022/07/14 21:22:26;;;;;;;5.28;2.05;;;25.30;39.80;;;21.81;52.23;95595.31;4900891;28;20417;-44
2022/07/14 21:24:54;;;;;;;2.15;1.95;;;25.20;40.40;;;21.72;52.53;95597.31;4894994;29;20039;-46
2022/07/14 21:27:22;;;;;;;2.45;1.73;;;25.10;40.40;;;21.63;51.94;95594.69;4895112;29;20058;-47
2022/07/14 21:29:53;;;;;;;4.88;1.80;;;25.00;40.60;;;21.53;52.50;95602.44;4911400;29;20020;-45
2022/07/14 21:32:19;;;;;;;3.83;2.30;;;25.00;40.80;;;21.42;52.45;95602.06;4899657;29;20504;-43
2022/07/14 21:35:00;;;;;;;4.30;1.85;;;24.90;40.80;;;21.36;51.66;95606.91;4893920;29;20032;-48
2022/07/14 21:37:26;;;;;;;6.25;1.80;;;24.80;41.00;;;21.31;52.57;95609.81;4898071;29;20024;-44
2022/07/14 21:39:51;;;;;;;1.77;1.60;;;24.70;41.60;;;21.18;54.09;95621.69;4897449;29;20035;-44
2022/07/14 21:42:17;;;;;;;6.00;1.95;;;24.60;41.30;;;21.00;53.33;95621.84;4893400;29;20028;-44
2022/07/14 21:44:44;;;;;;;4.65;1.70;;;24.60;41.60;;;21.03;52.70;95614.97;4902144;29;20122;-44
2022/07/14 21:47:10;;;;;;;2.17;1.92;;;24.50;41.50;;;21.09;52.35;95629.91;4893347;23;20080;-47
2022/07/14 21:49:52;;;;;;;5.70;1.70;;;24.40;41.50;;;21.30;51.14;95631.78;4894346;29;20419;-48
2022/07/14 21:52:21;;;;;;;3.72;1.58;;;24.50;41.70;;;21.51;49.41;95637.22;4908877;29;20116;-47
2022/07/14 21:54:52;;;;;;;3.03;2.00;;;24.50;41.30;;;21.69;51.42;95638.66;4876433;29;20135;-47
2022/07/14 21:57:18;;;;;;;5.20;1.50;;;24.60;41.60;;;21.69;50.70;95646.78;4899017;29;20027;-50
2022/07/14 21:59:51;;;;;;;3.00;1.70;;;24.60;41.40;;;21.67;49.86;95649.03;4896362;29;20370;-48
2022/07/14 22:02:18;;;;;;;3.45;1.83;;;24.70;41.40;;;21.81;49.22;95649.53;4927465;29;20047;-48
2022/07/14 22:04:48;;;;;;;1.92;1.58;;;24.80;41.20;;;22.01;48.78;95655.22;4903577;29;20024;-49
2022/07/14 22:07:14;;;;;;;2.50;1.80;;;24.80;41.10;;;22.23;48.34;95662.97;4892902;29;20024;-51
2022/07/14 22:09:43;;;;;;;3.13;2.10;;;25.00;41.00;;;22.46;48.41;95657.13;4901277;29;20043;-51
2022/07/14 22:12:15;;;;;;;9.10;1.95;;;25.10;41.10;;;22.59;48.36;95654.06;4912912;29;20131;-48
2022/07/14 22:14:45;;;;;;;5.00;2.35;;;25.30;41.10;;;22.65;48.30;95651.91;4896043;28;20165;-48
2022/07/14 22:17:11;;;;;;;5.70;2.67;;;25.40;40.90;;;22.72;48.61;95662.19;4912523;28;20118;-48
2022/07/14 22:19:37;;;;;;;5.47;2.70;;;25.50;40.90;;;22.72;48.93;95663.00;4911738;28;20086;-47
2022/07/14 22:22:04;;;;;;;6.32;2.60;;;25.60;40.90;;;22.74;49.21;95666.16;4900432;28;20381;-48
2022/07/14 22:24:30;;;;;;;5.78;2.67;;;25.70;40.90;;;22.73;49.72;95659.16;4893815;29;20032;-50
2022/07/14 22:27:16;;;;;;;6.40;2.80;;;25.70;41.00;;;22.77;49.95;95664.69;4892483;29;20031;-47
2022/07/14 22:29:46;;;;;;;5.93;3.67;;;25.80;41.80;;;22.72;50.36;95667.63;4893141;29;20398;-48
2022/07/14 22:32:13;;;;;;;3.92;3.20;;;25.80;41.20;;;22.68;50.83;95669.44;4892882;29;20067;-49
2022/07/14 22:34:40;;;;;;;7.30;3.28;;;25.80;41.30;;;22.64;51.08;95670.13;4906014;29;20055;-49
